Time;durP1;ratioP1;P1;durP2;ratioP2;P2;SDS_P1;SDS_P2;PMS_P1;PMS_P2;Temp;Humidity;BMP_temperature;BMP_pressure;BME280_temperature;BME280_humidity;BME280_pressure;Samples;Min_cycle;Max_cycle;Signal;HPM_P1;HPM_P2
2022/08/08 00:00:38;;;;;;;0.35;0.35;;;;;;;;;;4971789;28;20233;-69
2022/08/08 00:03:08;;;;;;;0.30;0.30;;;;;;;;;;4970835;28;20218;-69
2022/08/08 00:05:39;;;;;;;0.40;0.40;;;;;;;;;;4971463;28;20543;-69
2022/08/08 00:08:10;;;;;;;0.70;0.70;;;;;;;;;;4971870;28;20207;-69
2022/08/08 00:10:41;;;;;;;0.50;0.50;;;;;;;;;;4971493;28;20206;-69
2022/08/08 00:13:10;;;;;;;0.40;0.40;;;;;;;;;;4971502;28;20550;-69
2022/08/08 00:15:40;;;;;;;0.50;0.50;;;;;;;;;;4971267;28;20230;-69
2022/08/08 00:18:09;;;;;;;0.40;0.40;;;;;;;;;;4971610;28;20223;-69
2022/08/08 00:20:41;;;;;;;0.50;0.50;;;;;;;;;;4971641;28;20257;-69
2022/08/08 00:23:08;;;;;;;0.43;0.43;;;;;;;;;;4971696;28;20213;-69
2022/08/08 00:25:37;;;;;;;0.50;0.50;;;;;;;;;;4971168;28;20198;-69
2022/08/08 00:28:06;;;;;;;0.85;0.57;;;;;;;;;;4971706;28;20210;-69
2022/08/08 00:30:34;;;;;;;0.63;0.50;;;;;;;;;;4971203;28;20242;-69
2022/08/08 00:33:04;;;;;;;2.17;0.50;;;;;;;;;;4971122;28;20210;-69
2022/08/08 00:35:34;;;;;;;0.50;0.50;;;;;;;;;;4971423;28;20808;-69
2022/08/08 00:38:10;;;;;;;0.70;0.40;;;;;;;;;;4970939;28;20272;-69
2022/08/08 00:40:50;;;;;;;0.60;0.60;;;;;;;;;;4971133;28;20222;-69
2022/08/08 00:43:31;;;;;;;0.40;0.40;;;;;;;;;;4970637;28;20207;-68
2022/08/08 00:46:04;;;;;;;0.50;0.50;;;;;;;;;;4970542;28;20318;-69
2022/08/08 00:48:43;;;;;;;0.68;0.68;;;;;;;;;;4970748;28;20595;-69
2022/08/08 00:51:37;;;;;;;0.50;0.50;;;;;;;;;;4971039;28;20237;-69
2022/08/08 00:54:16;;;;;;;0.40;0.40;;;;;;;;;;4970503;28;20617;-69
2022/08/08 00:56:53;;;;;;;0.55;0.55;;;;;;;;;;4971455;28;20206;-69
2022/08/08 00:59:38;;;;;;;0.50;0.50;;;;;;;;;;4970916;28;20210;-69
2022/08/08 01:02:14;;;;;;;0.50;0.50;;;;;;;;;;4970900;28;20277;-69
2022/08/08 01:04:53;;;;;;;0.50;0.50;;;;;;;;;;4970963;28;20198;-69
2022/08/08 01:07:38;;;;;;;2.53;0.60;;;;;;;;;;4970929;28;20673;-69
2022/08/08 01:10:24;;;;;;;0.63;0.63;;;;;;;;;;4961095;28;20221;-69
2022/08/08 01:13:09;;;;;;;0.90;0.88;;;;;;;;;;4970941;28;20269;-69
2022/08/08 01:15:52;;;;;;;1.17;0.77;;;;;;;;;;4970000;28;20236;-69
2022/08/08 01:18:46;;;;;;;0.40;0.40;;;;;;;;;;4970553;28;20693;-69
2022/08/08 01:21:40;;;;;;;0.60;0.60;;;;;;;;;;4970767;28;20213;-69
2022/08/08 01:24:20;;;;;;;0.60;0.60;;;;;;;;;;4970217;28;20209;-69
2022/08/08 01:26:58;;;;;;;0.52;0.52;;;;;;;;;;4970821;28;20269;-69
2022/08/08 01:29:42;;;;;;;0.60;0.60;;;;;;;;;;4962724;28;20209;-69
2022/08/08 01:32:44;;;;;;;0.55;0.50;;;;;;;;;;4960818;28;20217;-69
2022/08/08 01:35:22;;;;;;;1.88;0.60;;;;;;;;;;4969313;28;20222;-69
2022/08/08 01:38:08;;;;;;;0.40;0.40;;;;;;;;;;4970383;28;20214;-69
2022/08/08 01:40:39;;;;;;;0.70;0.70;;;;;;;;;;4966669;28;20668;-68
2022/08/08 01:43:11;;;;;;;0.60;0.60;;;;;;;;;;4970274;28;20221;-69
2022/08/08 01:45:46;;;;;;;0.70;0.70;;;;;;;;;;4970028;28;20206;-69
2022/08/08 01:48:18;;;;;;;1.10;0.60;;;;;;;;;;4969381;28;20205;-69
2022/08/08 01:50:54;;;;;;;0.65;0.40;;;;;;;;;;4966131;28;20258;-69
2022/08/08 01:53:31;;;;;;;3.15;0.55;;;;;;;;;;4970124;28;20206;-69
2022/08/08 01:56:01;;;;;;;1.55;0.52;;;;;;;;;;4959298;28;20648;-69
2022/08/08 01:58:34;;;;;;;1.15;0.75;;;;;;;;;;4967354;28;20238;-69
2022/08/08 02:01:11;;;;;;;0.85;0.57;;;;;;;;;;4965120;28;20814;-69
2022/08/08 02:03:48;;;;;;;0.50;0.50;;;;;;;;;;4954451;28;20210;-69
2022/08/08 02:06:19;;;;;;;0.50;0.50;;;;;;;;;;4969054;28;20209;-68
2022/08/08 02:08:49;;;;;;;1.13;0.55;;;;;;;;;;4966229;28;20226;-69
2022/08/08 02:11:23;;;;;;;0.50;0.50;;;;;;;;;;4968259;28;20215;-69
2022/08/08 02:13:54;;;;;;;0.85;0.60;;;;;;;;;;4968675;28;20614;-69
2022/08/08 02:16:27;;;;;;;0.75;0.50;;;;;;;;;;4969222;28;20783;-69
2022/08/08 02:18:56;;;;;;;0.50;0.50;;;;;;;;;;4968975;28;20595;-69
2022/08/08 02:24:15;;;;;;;0.60;0.50;;;;;;;;;;4969124;28;20214;-69
2022/08/08 02:26:46;;;;;;;1.10;0.40;;;;;;;;;;4969557;28;20206;-69
2022/08/08 02:29:24;;;;;;;0.50;0.47;;;;;;;;;;4968599;28;20218;-69
2022/08/08 02:32:06;;;;;;;1.00;0.65;;;;;;;;;;4969402;28;20218;-70
2022/08/08 02:34:41;;;;;;;0.52;0.52;;;;;;;;;;4965150;28;20214;-69
2022/08/08 02:37:17;;;;;;;0.60;0.60;;;;;;;;;;4969268;28;20210;-69
2022/08/08 02:39:51;;;;;;;0.40;0.40;;;;;;;;;;4969261;28;20252;-69
2022/08/08 02:42:32;;;;;;;3.95;0.60;;;;;;;;;;4969156;28;20210;-69
2022/08/08 02:45:18;;;;;;;0.68;0.68;;;;;;;;;;4969081;28;20214;-69
2022/08/08 02:48:11;;;;;;;1.33;0.77;;;;;;;;;;4968995;28;20276;-69
2022/08/08 02:50:59;;;;;;;0.60;0.60;;;;;;;;;;4968656;28;20241;-69
2022/08/08 02:53:44;;;;;;;3.83;0.70;;;;;;;;;;4969118;28;20218;-68
2022/08/08 02:56:41;;;;;;;0.47;0.47;;;;;;;;;;4968625;28;20229;-69
2022/08/08 02:59:43;;;;;;;0.40;0.40;;;;;;;;;;4965671;28;20215;-69
2022/08/08 03:02:21;;;;;;;0.50;0.50;;;;;;;;;;4969172;28;20216;-69
2022/08/08 03:04:58;;;;;;;0.60;0.60;;;;;;;;;;4969006;28;20276;-69
2022/08/08 03:07:44;;;;;;;1.00;0.50;;;;;;;;;;4968737;28;20680;-68
2022/08/08 03:10:26;;;;;;;1.00;0.55;;;;;;;;;;4961644;28;20206;-68
2022/08/08 03:13:03;;;;;;;0.57;0.40;;;;;;;;;;4968541;28;20210;-69
2022/08/08 03:15:52;;;;;;;1.00;0.50;;;;;;;;;;4969164;28;20653;-68
2022/08/08 03:18:22;;;;;;;0.40;0.40;;;;;;;;;;4968829;28;20210;-69
2022/08/08 03:20:49;;;;;;;0.50;0.50;;;;;;;;;;4968822;28;20210;-68
2022/08/08 03:23:18;;;;;;;1.65;0.68;;;;;;;;;;4971398;28;20671;-68
2022/08/08 03:25:46;;;;;;;0.40;0.40;;;;;;;;;;4971952;28;20661;-68
2022/08/08 03:28:15;;;;;;;0.40;0.40;;;;;;;;;;4971840;28;20215;-68
2022/08/08 03:30:44;;;;;;;0.50;0.50;;;;;;;;;;4972389;28;20896;-69
2022/08/08 03:33:19;;;;;;;0.63;0.43;;;;;;;;;;4971537;28;20301;-68
2022/08/08 03:35:47;;;;;;;0.90;0.60;;;;;;;;;;4971893;28;20281;-69
2022/08/08 03:38:14;;;;;;;0.50;0.50;;;;;;;;;;4972367;28;20238;-69
2022/08/08 03:40:50;;;;;;;0.40;0.40;;;;;;;;;;4971809;28;20202;-69
2022/08/08 03:43:17;;;;;;;0.35;0.35;;;;;;;;;;4971296;28;20641;-68
2022/08/08 03:45:44;;;;;;;1.10;0.50;;;;;;;;;;4972041;28;20673;-69
2022/08/08 03:48:11;;;;;;;0.43;0.43;;;;;;;;;;4971430;28;20213;-69
2022/08/08 03:50:41;;;;;;;0.50;0.50;;;;;;;;;;4971495;28;20237;-69
2022/08/08 03:53:10;;;;;;;2.05;0.50;;;;;;;;;;4971420;28;20222;-69
2022/08/08 03:55:38;;;;;;;0.60;0.60;;;;;;;;;;4971055;28;20756;-69
2022/08/08 03:58:07;;;;;;;2.40;0.40;;;;;;;;;;4970394;28;20297;-68
2022/08/08 04:00:34;;;;;;;0.60;0.60;;;;;;;;;;4971053;28;20214;-68
2022/08/08 04:03:04;;;;;;;0.70;0.70;;;;;;;;;;4971653;28;20210;-68
2022/08/08 04:05:32;;;;;;;1.75;0.50;;;;;;;;;;4970851;28;20246;-69
2022/08/08 04:07:59;;;;;;;0.50;0.50;;;;;;;;;;4971384;28;20213;-69
2022/08/08 04:10:27;;;;;;;1.88;0.60;;;;;;;;;;4971274;28;20206;-69
2022/08/08 04:12:54;;;;;;;0.50;0.50;;;;;;;;;;4971581;28;20693;-69
2022/08/08 04:15:23;;;;;;;1.83;0.80;;;;;;;;;;4968895;28;20222;-69
2022/08/08 04:17:50;;;;;;;0.60;0.60;;;;;;;;;;4969879;28;20228;-69
2022/08/08 04:20:17;;;;;;;0.50;0.50;;;;;;;;;;4971530;28;20213;-68
2022/08/08 04:22:44;;;;;;;0.40;0.40;;;;;;;;;;4971542;28;20945;-68
2022/08/08 04:25:11;;;;;;;2.80;0.50;;;;;;;;;;4970901;28;20261;-69
2022/08/08 04:27:38;;;;;;;0.40;0.40;;;;;;;;;;4972424;28;20243;-69
2022/08/08 04:30:06;;;;;;;0.45;0.45;;;;;;;;;;4972317;28;20210;-69
2022/08/08 04:32:35;;;;;;;2.05;0.40;;;;;;;;;;4970937;28;20211;-69
2022/08/08 04:35:02;;;;;;;0.63;0.50;;;;;;;;;;4971687;28;20210;-69
2022/08/08 04:37:29;;;;;;;2.65;0.55;;;;;;;;;;4969747;28;20213;-69
2022/08/08 04:40:02;;;;;;;0.63;0.63;;;;;;;;;;4971248;28;20210;-69
2022/08/08 04:42:32;;;;;;;0.50;0.50;;;;;;;;;;4970601;28;20588;-69
2022/08/08 04:44:59;;;;;;;2.90;0.60;;;;;;;;;;4971161;28;20311;-69
2022/08/08 04:47:26;;;;;;;0.65;0.65;;;;;;;;;;4970095;28;20221;-69
2022/08/08 04:49:55;;;;;;;0.70;0.57;;;;;;;;;;4970271;28;20242;-69
2022/08/08 04:52:23;;;;;;;0.60;0.60;;;;;;;;;;4970739;28;20203;-69
2022/08/08 04:54:50;;;;;;;1.02;0.60;;;;;;;;;;4971068;28;20211;-69
2022/08/08 04:57:17;;;;;;;0.63;0.47;;;;;;;;;;4970932;28;20747;-69
2022/08/08 04:59:44;;;;;;;0.40;0.40;;;;;;;;;;4970972;28;20219;-70
2022/08/08 05:02:12;;;;;;;0.52;0.52;;;;;;;;;;4970391;28;20222;-70
2022/08/08 05:04:39;;;;;;;0.82;0.60;;;;;;;;;;4971226;28;20210;-70
2022/08/08 05:07:07;;;;;;;0.75;0.57;;;;;;;;;;4968448;28;20265;-70
2022/08/08 05:09:34;;;;;;;0.50;0.50;;;;;;;;;;4969668;28;20214;-70
2022/08/08 05:12:02;;;;;;;0.75;0.57;;;;;;;;;;4970601;28;20371;-70
2022/08/08 05:14:29;;;;;;;0.63;0.50;;;;;;;;;;4969318;28;20261;-70
2022/08/08 05:16:56;;;;;;;0.50;0.50;;;;;;;;;;4970767;28;20222;-71
2022/08/08 05:19:23;;;;;;;2.00;0.60;;;;;;;;;;4970577;28;20229;-70
2022/08/08 05:21:54;;;;;;;1.13;0.57;;;;;;;;;;4967642;28;20213;-69
2022/08/08 05:24:22;;;;;;;0.57;0.40;;;;;;;;;;4970344;28;20695;-70
2022/08/08 05:26:49;;;;;;;2.63;0.50;;;;;;;;;;4970196;28;20261;-70
2022/08/08 05:29:16;;;;;;;0.50;0.50;;;;;;;;;;4969130;28;20211;-70
2022/08/08 05:31:43;;;;;;;0.50;0.50;;;;;;;;;;4967755;28;20226;-70
2022/08/08 05:34:14;;;;;;;0.50;0.50;;;;;;;;;;4968761;28;20202;-69
2022/08/08 05:36:41;;;;;;;1.20;0.50;;;;;;;;;;4969169;28;20222;-73
2022/08/08 05:39:09;;;;;;;0.70;0.70;;;;;;;;;;4969441;28;20232;-69
2022/08/08 05:41:38;;;;;;;0.40;0.35;;;;;;;;;;4967269;28;20736;-70
2022/08/08 05:44:11;;;;;;;0.55;0.55;;;;;;;;;;4968702;28;20634;-70
2022/08/08 05:46:38;;;;;;;0.60;0.60;;;;;;;;;;4966679;28;20291;-70
2022/08/08 05:49:05;;;;;;;0.40;0.40;;;;;;;;;;4967836;28;20309;-69
2022/08/08 05:51:32;;;;;;;0.90;0.47;;;;;;;;;;4968425;28;20303;-70
2022/08/08 05:54:00;;;;;;;4.18;0.65;;;;;;;;;;4969762;28;20677;-70
2022/08/08 05:56:27;;;;;;;0.60;0.60;;;;;;;;;;4968002;28;20230;-70
2022/08/08 05:58:59;;;;;;;0.50;0.50;;;;;;;;;;4967524;28;20201;-70
2022/08/08 06:01:27;;;;;;;3.22;0.50;;;;;;;;;;4967977;28;20198;-70
2022/08/08 06:03:57;;;;;;;0.40;0.40;;;;;;;;;;4963267;28;20217;-70
2022/08/08 06:06:24;;;;;;;3.10;0.57;;;;;;;;;;4966261;28;20207;-70
2022/08/08 06:08:53;;;;;;;1.75;0.50;;;;;;;;;;4969138;28;20325;-71
2022/08/08 06:11:20;;;;;;;0.55;0.55;;;;;;;;;;4970381;28;20217;-70
2022/08/08 06:13:47;;;;;;;1.33;0.80;;;;;;;;;;4980363;28;20214;-71
2022/08/08 06:16:16;;;;;;;1.35;0.60;;;;;;;;;;4968379;28;20218;-70
2022/08/08 06:18:43;;;;;;;2.05;0.50;;;;;;;;;;4968878;28;20301;-70
2022/08/08 06:21:10;;;;;;;0.60;0.60;;;;;;;;;;4968207;28;20721;-70
2022/08/08 06:23:37;;;;;;;0.95;0.60;;;;;;;;;;4970744;28;20760;-70
2022/08/08 06:26:06;;;;;;;0.47;0.47;;;;;;;;;;4972935;28;20298;-71
2022/08/08 06:28:34;;;;;;;1.42;0.68;;;;;;;;;;4976567;28;20209;-70
2022/08/08 06:31:02;;;;;;;0.88;0.60;;;;;;;;;;4977163;28;20214;-70
2022/08/08 06:33:36;;;;;;;3.05;1.02;;;;;;;;;;4971380;28;20206;-70
2022/08/08 06:36:04;;;;;;;0.55;0.55;;;;;;;;;;4972494;28;20783;-70
2022/08/08 06:38:33;;;;;;;0.75;0.60;;;;;;;;;;4973371;28;20286;-70
2022/08/08 06:41:04;;;;;;;2.72;0.52;;;;;;;;;;4967968;28;20614;-70
2022/08/08 06:43:35;;;;;;;3.17;0.60;;;;;;;;;;4967993;28;20306;-70
2022/08/08 06:46:02;;;;;;;1.15;0.60;;;;;;;;;;4968363;28;20202;-70
2022/08/08 06:48:29;;;;;;;1.40;0.50;;;;;;;;;;4968305;28;20709;-71
2022/08/08 06:50:58;;;;;;;2.83;0.52;;;;;;;;;;4968183;28;20214;-70
2022/08/08 06:53:26;;;;;;;0.50;0.50;;;;;;;;;;4968044;28;20292;-70
2022/08/08 06:55:53;;;;;;;4.43;0.65;;;;;;;;;;4968497;28;20624;-70
2022/08/08 06:58:20;;;;;;;1.75;0.40;;;;;;;;;;4971959;28;20217;-68
2022/08/08 07:00:48;;;;;;;1.65;0.57;;;;;;;;;;4972173;28;20218;-69
2022/08/08 07:03:22;;;;;;;2.70;0.93;;;;;;;;;;4970179;28;20210;-69
2022/08/08 07:05:51;;;;;;;2.92;0.70;;;;;;;;;;4965975;28;20683;-69
2022/08/08 07:08:21;;;;;;;0.80;0.60;;;;;;;;;;4971426;28;20213;-70
2022/08/08 07:10:49;;;;;;;0.90;0.60;;;;;;;;;;4972273;28;20673;-70
2022/08/08 07:13:17;;;;;;;2.72;0.50;;;;;;;;;;4970386;28;20207;-70
2022/08/08 07:15:45;;;;;;;0.63;0.63;;;;;;;;;;4972178;28;20347;-71
2022/08/08 07:18:12;;;;;;;0.77;0.77;;;;;;;;;;4973823;28;20277;-70
2022/08/08 07:20:40;;;;;;;1.02;0.70;;;;;;;;;;4971846;28;20293;-71
2022/08/08 07:23:11;;;;;;;0.65;0.65;;;;;;;;;;4971580;28;20265;-70
2022/08/08 07:25:41;;;;;;;0.85;0.50;;;;;;;;;;4975159;28;20286;-71
2022/08/08 07:28:09;;;;;;;1.00;1.00;;;;;;;;;;4971853;28;21009;-70
2022/08/08 07:30:37;;;;;;;1.02;0.60;;;;;;;;;;4971809;28;20289;-69
2022/08/08 07:33:04;;;;;;;0.80;0.80;;;;;;;;;;4971946;28;20219;-70
2022/08/08 07:35:31;;;;;;;1.33;0.50;;;;;;;;;;4970085;28;20584;-70
2022/08/08 07:37:59;;;;;;;1.65;0.70;;;;;;;;;;4971553;28;20230;-67
2022/08/08 07:40:26;;;;;;;4.20;0.70;;;;;;;;;;4971387;28;20317;-70
2022/08/08 07:42:55;;;;;;;1.92;0.50;;;;;;;;;;4971166;28;20301;-70
2022/08/08 07:45:22;;;;;;;0.65;0.60;;;;;;;;;;4969662;28;20261;-70
2022/08/08 07:47:51;;;;;;;0.60;0.60;;;;;;;;;;4971173;28;20210;-70
2022/08/08 07:50:18;;;;;;;1.55;0.47;;;;;;;;;;4965588;28;20328;-73
2022/08/08 07:52:47;;;;;;;1.42;0.52;;;;;;;;;;4970604;28;20569;-68
2022/08/08 07:55:17;;;;;;;2.05;0.60;;;;;;;;;;4971287;28;20210;-69
2022/08/08 07:57:48;;;;;;;1.98;0.50;;;;;;;;;;4969303;28;20679;-68
2022/08/08 08:00:17;;;;;;;0.52;0.52;;;;;;;;;;4970395;28;20211;-68
2022/08/08 08:02:44;;;;;;;2.75;0.50;;;;;;;;;;4970547;28;20211;-66
2022/08/08 08:05:17;;;;;;;0.60;0.60;;;;;;;;;;4971852;28;20202;-68
2022/08/08 08:07:48;;;;;;;1.13;0.60;;;;;;;;;;4970899;28;20242;-68
2022/08/08 08:10:16;;;;;;;0.93;0.50;;;;;;;;;;4971769;28;20206;-74
2022/08/08 08:12:50;;;;;;;0.50;0.50;;;;;;;;;;4971951;28;20731;-73
2022/08/08 08:15:19;;;;;;;0.70;0.50;;;;;;;;;;4972057;28;20213;-74
2022/08/08 08:17:47;;;;;;;0.52;0.50;;;;;;;;;;4971576;28;20719;-70
2022/08/08 08:20:15;;;;;;;1.10;0.77;;;;;;;;;;4975298;28;20214;-70
2022/08/08 08:22:42;;;;;;;0.73;0.73;;;;;;;;;;4971958;28;20305;-73
2022/08/08 08:25:09;;;;;;;0.50;0.50;;;;;;;;;;4971668;28;20555;-67
2022/08/08 08:27:36;;;;;;;1.05;0.60;;;;;;;;;;4970211;28;20622;-64
2022/08/08 08:30:04;;;;;;;2.85;0.60;;;;;;;;;;4966934;28;20210;-66
2022/08/08 08:32:32;;;;;;;1.55;0.50;;;;;;;;;;4971181;28;20269;-72
2022/08/08 08:35:00;;;;;;;0.50;0.50;;;;;;;;;;4968490;28;20210;-72
2022/08/08 08:37:27;;;;;;;2.67;0.50;;;;;;;;;;4971352;28;20297;-71
2022/08/08 08:39:54;;;;;;;0.90;0.85;;;;;;;;;;4970957;28;20210;-72
2022/08/08 08:42:22;;;;;;;1.05;0.55;;;;;;;;;;4971272;28;20206;-72
2022/08/08 08:44:50;;;;;;;0.43;0.43;;;;;;;;;;4971273;28;20323;-71
2022/08/08 08:47:17;;;;;;;0.70;0.63;;;;;;;;;;4968991;28;20210;-67
2022/08/08 08:49:45;;;;;;;0.60;0.60;;;;;;;;;;4970290;28;20253;-67
2022/08/08 08:52:14;;;;;;;2.45;0.63;;;;;;;;;;4970965;28;20207;-67
2022/08/08 08:54:42;;;;;;;0.50;0.50;;;;;;;;;;4970431;28;20335;-67
2022/08/08 08:57:09;;;;;;;0.88;0.60;;;;;;;;;;4971006;28;20230;-67
2022/08/08 08:59:39;;;;;;;0.65;0.65;;;;;;;;;;4971381;28;20262;-67
2022/08/08 09:02:10;;;;;;;0.50;0.50;;;;;;;;;;4974288;28;20287;-67
2022/08/08 09:04:37;;;;;;;0.50;0.50;;;;;;;;;;4965719;28;20889;-67
2022/08/08 09:07:07;;;;;;;1.27;0.60;;;;;;;;;;4967852;28;20211;-68
2022/08/08 09:09:35;;;;;;;0.68;0.68;;;;;;;;;;4971457;28;20329;-67
2022/08/08 09:12:02;;;;;;;0.50;0.50;;;;;;;;;;4958952;28;20211;-67
2022/08/08 09:14:29;;;;;;;0.52;0.52;;;;;;;;;;4971208;28;20265;-68
2022/08/08 09:16:56;;;;;;;2.50;1.13;;;;;;;;;;4969437;28;20238;-67
2022/08/08 09:19:23;;;;;;;2.67;0.50;;;;;;;;;;4970513;28;20691;-64
2022/08/08 09:21:51;;;;;;;0.95;0.60;;;;;;;;;;4970229;28;20225;-65
2022/08/08 09:24:20;;;;;;;1.23;0.70;;;;;;;;;;4969966;28;20261;-62
2022/08/08 09:26:51;;;;;;;0.60;0.60;;;;;;;;;;4981332;28;20582;-65
2022/08/08 09:29:21;;;;;;;1.85;0.60;;;;;;;;;;4970827;28;20217;-64
2022/08/08 09:32:03;;;;;;;0.88;0.50;;;;;;;;;;4967070;28;20206;-64
2022/08/08 09:34:32;;;;;;;0.70;0.70;;;;;;;;;;4968901;28;20220;-63
2022/08/08 09:37:02;;;;;;;0.68;0.68;;;;;;;;;;4970114;28;20637;-63
2022/08/08 09:39:35;;;;;;;0.73;0.73;;;;;;;;;;4969645;28;20294;-63
2022/08/08 09:42:04;;;;;;;1.50;0.60;;;;;;;;;;4971751;28;20261;-66
2022/08/08 09:44:41;;;;;;;1.65;0.50;;;;;;;;;;4971677;28;20202;-66
2022/08/08 09:47:09;;;;;;;1.33;0.52;;;;;;;;;;4967996;28;20207;-65
2022/08/08 09:49:37;;;;;;;1.38;0.65;;;;;;;;;;4967597;28;20261;-66
2022/08/08 09:52:04;;;;;;;4.65;0.73;;;;;;;;;;4968854;28;20773;-66
2022/08/08 09:54:35;;;;;;;0.68;0.68;;;;;;;;;;4970263;28;20772;-66
2022/08/08 09:57:02;;;;;;;0.65;0.65;;;;;;;;;;4970497;28;20234;-66
2022/08/08 09:59:32;;;;;;;0.60;0.60;;;;;;;;;;4969574;28;20306;-67
2022/08/08 10:02:00;;;;;;;1.48;0.80;;;;;;;;;;4969859;28;20214;-67
2022/08/08 10:04:28;;;;;;;0.70;0.70;;;;;;;;;;4969415;28;20257;-67
2022/08/08 10:06:55;;;;;;;0.60;0.60;;;;;;;;;;4969324;28;20210;-67
2022/08/08 10:09:32;;;;;;;0.63;0.63;;;;;;;;;;4969657;28;20214;-67
2022/08/08 10:12:02;;;;;;;1.58;0.50;;;;;;;;;;4968177;28;20724;-67
2022/08/08 10:14:32;;;;;;;0.93;0.60;;;;;;;;;;4962515;28;20261;-67
2022/08/08 10:16:59;;;;;;;0.50;0.50;;;;;;;;;;4968973;28;20258;-66
2022/08/08 10:19:35;;;;;;;0.52;0.52;;;;;;;;;;4967941;28;20221;-67
2022/08/08 10:22:02;;;;;;;4.50;0.65;;;;;;;;;;4968193;28;20264;-67
2022/08/08 10:24:30;;;;;;;1.27;0.63;;;;;;;;;;4969122;28;20670;-66
2022/08/08 10:26:59;;;;;;;0.50;0.50;;;;;;;;;;4969960;28;20268;-67
2022/08/08 10:29:38;;;;;;;1.27;0.70;;;;;;;;;;4967803;28;20202;-67
2022/08/08 10:34:52;;;;;;;1.00;0.68;;;;;;;;;;4966921;28;20590;-68
2022/08/08 10:37:23;;;;;;;1.17;0.50;;;;;;;;;;4969555;28;20226;-68
2022/08/08 10:39:50;;;;;;;0.65;0.60;;;;;;;;;;4968422;28;20676;-68
2022/08/08 10:42:19;;;;;;;0.82;0.63;;;;;;;;;;4968508;28;20220;-67
2022/08/08 10:44:48;;;;;;;0.70;0.70;;;;;;;;;;4966402;28;20867;-68
2022/08/08 10:47:15;;;;;;;3.67;0.65;;;;;;;;;;4969258;28;20319;-69
2022/08/08 10:49:42;;;;;;;0.52;0.50;;;;;;;;;;4968908;28;20296;-68
2022/08/08 10:52:10;;;;;;;1.45;0.80;;;;;;;;;;4969609;28;20211;-68
2022/08/08 10:54:38;;;;;;;0.82;0.60;;;;;;;;;;4968930;28;21717;-69
2022/08/08 10:57:06;;;;;;;1.60;0.70;;;;;;;;;;4969130;28;20210;-68
2022/08/08 10:59:34;;;;;;;1.10;0.70;;;;;;;;;;4968859;28;20301;-68
2022/08/08 11:02:02;;;;;;;1.10;0.50;;;;;;;;;;4968822;28;20214;-68
2022/08/08 11:04:29;;;;;;;1.55;1.25;;;;;;;;;;4969077;28;20211;-68
2022/08/08 11:07:00;;;;;;;0.55;0.55;;;;;;;;;;4969176;28;20673;-67
2022/08/08 11:09:28;;;;;;;1.08;0.80;;;;;;;;;;4971559;28;20305;-75
2022/08/08 11:11:57;;;;;;;0.68;0.68;;;;;;;;;;4969976;28;20211;-70
2022/08/08 11:14:24;;;;;;;1.38;0.70;;;;;;;;;;4967941;28;20218;-69
2022/08/08 11:16:51;;;;;;;0.82;0.60;;;;;;;;;;4969453;28;20707;-70
2022/08/08 11:19:23;;;;;;;1.17;0.55;;;;;;;;;;4966464;28;20230;-67
2022/08/08 11:21:50;;;;;;;0.57;0.57;;;;;;;;;;4968877;28;20218;-67
2022/08/08 11:24:17;;;;;;;1.02;0.90;;;;;;;;;;4969008;28;20215;-67
2022/08/08 11:26:45;;;;;;;0.90;0.80;;;;;;;;;;4968920;28;20680;-64
2022/08/08 11:29:14;;;;;;;0.60;0.60;;;;;;;;;;4967901;28;20286;-64
2022/08/08 11:31:41;;;;;;;0.95;0.60;;;;;;;;;;4967025;28;20301;-65
2022/08/08 11:34:09;;;;;;;2.05;0.75;;;;;;;;;;4968982;28;20260;-66
2022/08/08 11:36:38;;;;;;;0.68;0.63;;;;;;;;;;4969281;28;20222;-65
2022/08/08 11:39:06;;;;;;;1.02;0.77;;;;;;;;;;4968979;28;20300;-66
2022/08/08 11:41:35;;;;;;;4.55;0.90;;;;;;;;;;4969598;28;20206;-65
2022/08/08 11:44:04;;;;;;;0.82;0.57;;;;;;;;;;4971180;28;20272;-65
2022/08/08 11:46:33;;;;;;;0.65;0.52;;;;;;;;;;4973069;28;20333;-66
2022/08/08 11:49:02;;;;;;;0.63;0.63;;;;;;;;;;4972449;28;20747;-65
2022/08/08 11:51:29;;;;;;;1.30;0.60;;;;;;;;;;4972500;28;20741;-64
2022/08/08 11:53:57;;;;;;;1.65;0.60;;;;;;;;;;4972769;28;20214;-68
2022/08/08 11:56:25;;;;;;;1.08;0.73;;;;;;;;;;4972133;28;20218;-67
2022/08/08 11:58:54;;;;;;;0.60;0.60;;;;;;;;;;4972903;28;20264;-67
2022/08/08 12:01:31;;;;;;;0.70;0.70;;;;;;;;;;4972564;28;20210;-68
2022/08/08 12:03:58;;;;;;;1.25;0.75;;;;;;;;;;4972128;28;20332;-67
2022/08/08 12:06:25;;;;;;;0.68;0.68;;;;;;;;;;4972606;28;20214;-68
2022/08/08 12:08:52;;;;;;;0.70;0.70;;;;;;;;;;4972209;28;20207;-67
2022/08/08 12:11:21;;;;;;;0.80;0.80;;;;;;;;;;4971998;28;20629;-67
2022/08/08 12:13:48;;;;;;;0.60;0.60;;;;;;;;;;4971735;28;20682;-66
2022/08/08 12:16:16;;;;;;;1.55;0.60;;;;;;;;;;4972615;28;20217;-67
2022/08/08 12:18:45;;;;;;;0.65;0.65;;;;;;;;;;4972172;28;20238;-67
2022/08/08 12:21:20;;;;;;;2.50;0.70;;;;;;;;;;4972309;28;20217;-67
2022/08/08 12:23:47;;;;;;;0.55;0.50;;;;;;;;;;4971999;28;20301;-66
2022/08/08 12:26:15;;;;;;;2.28;0.90;;;;;;;;;;4971922;28;20214;-66
2022/08/08 12:28:53;;;;;;;0.73;0.73;;;;;;;;;;4971345;28;20225;-66
2022/08/08 12:31:30;;;;;;;0.50;0.50;;;;;;;;;;4973145;28;20337;-67
2022/08/08 12:33:57;;;;;;;0.80;0.80;;;;;;;;;;4971702;28;20293;-66
2022/08/08 12:36:24;;;;;;;0.60;0.60;;;;;;;;;;4972052;28;20658;-67
2022/08/08 12:38:51;;;;;;;0.77;0.77;;;;;;;;;;4971918;28;20230;-67
2022/08/08 12:41:21;;;;;;;4.28;0.80;;;;;;;;;;4970602;28;20217;-66
2022/08/08 12:43:50;;;;;;;1.00;0.50;;;;;;;;;;4971162;28;20210;-67
2022/08/08 12:46:17;;;;;;;0.70;0.70;;;;;;;;;;4970171;28;20253;-67
2022/08/08 12:48:53;;;;;;;3.13;0.70;;;;;;;;;;4970392;28;20670;-68
2022/08/08 12:51:20;;;;;;;1.35;0.70;;;;;;;;;;4971233;28;20301;-66
2022/08/08 12:53:56;;;;;;;0.50;0.50;;;;;;;;;;4970832;28;20269;-66
2022/08/08 12:56:32;;;;;;;1.45;0.70;;;;;;;;;;4971765;28;20214;-66
2022/08/08 12:59:01;;;;;;;0.93;0.70;;;;;;;;;;4970611;28;20325;-66
2022/08/08 13:01:35;;;;;;;3.78;0.70;;;;;;;;;;4971365;28;20316;-65
2022/08/08 13:04:12;;;;;;;0.60;0.60;;;;;;;;;;4970832;28;20210;-66
2022/08/08 13:06:39;;;;;;;2.15;0.70;;;;;;;;;;4971462;28;20309;-67
2022/08/08 13:09:09;;;;;;;0.68;0.68;;;;;;;;;;4970910;28;20701;-67
2022/08/08 13:11:37;;;;;;;0.65;0.50;;;;;;;;;;4969378;28;20402;-66
2022/08/08 13:14:10;;;;;;;0.60;0.60;;;;;;;;;;4971068;28;20657;-64
2022/08/08 13:16:37;;;;;;;0.50;0.50;;;;;;;;;;4971000;28;20231;-67
2022/08/08 13:19:06;;;;;;;0.47;0.47;;;;;;;;;;4970359;28;20717;-63
2022/08/08 13:21:42;;;;;;;1.10;0.70;;;;;;;;;;4969202;28;20218;-65
2022/08/08 13:24:09;;;;;;;1.35;0.65;;;;;;;;;;4967420;28;20280;-63
2022/08/08 13:26:37;;;;;;;1.38;0.60;;;;;;;;;;4969919;28;20210;-68
2022/08/08 13:29:10;;;;;;;0.50;0.50;;;;;;;;;;4970230;28;20604;-67
2022/08/08 13:31:46;;;;;;;4.20;0.50;;;;;;;;;;4968798;28;20615;-68
2022/08/08 13:34:18;;;;;;;0.60;0.60;;;;;;;;;;4967965;28;20240;-68
2022/08/08 13:36:45;;;;;;;0.85;0.85;;;;;;;;;;4963364;28;20214;-65
2022/08/08 13:39:14;;;;;;;0.57;0.57;;;;;;;;;;4969834;28;20284;-64
2022/08/08 13:41:41;;;;;;;0.52;0.52;;;;;;;;;;4970498;28;20222;-63
2022/08/08 13:44:10;;;;;;;0.63;0.52;;;;;;;;;;4968080;28;20277;-64
2022/08/08 13:46:37;;;;;;;0.60;0.60;;;;;;;;;;4968617;28;20210;-64
2022/08/08 13:49:05;;;;;;;0.50;0.50;;;;;;;;;;4968891;28;20750;-64
2022/08/08 13:51:32;;;;;;;0.70;0.70;;;;;;;;;;4966053;28;20945;-63
2022/08/08 13:53:59;;;;;;;3.53;0.90;;;;;;;;;;4969085;28;20206;-66
2022/08/08 13:56:30;;;;;;;3.92;0.63;;;;;;;;;;4969591;28;20206;-67
2022/08/08 13:58:57;;;;;;;3.17;0.60;;;;;;;;;;4968773;28;20238;-67
2022/08/08 14:01:27;;;;;;;4.05;0.70;;;;;;;;;;4969746;28;20210;-67
2022/08/08 14:03:55;;;;;;;1.55;0.80;;;;;;;;;;4969971;28;20242;-66
2022/08/08 14:06:22;;;;;;;2.20;0.73;;;;;;;;;;4968742;28;20210;-67
2022/08/08 14:08:49;;;;;;;0.50;0.40;;;;;;;;;;4969491;28;20607;-67
2022/08/08 14:11:17;;;;;;;0.40;0.40;;;;;;;;;;4969851;28;20218;-68
2022/08/08 14:13:44;;;;;;;0.57;0.50;;;;;;;;;;4970134;28;20300;-67
2022/08/08 14:16:11;;;;;;;0.50;0.50;;;;;;;;;;4969889;28;20221;-67
2022/08/08 14:18:49;;;;;;;0.40;0.40;;;;;;;;;;4970020;28;20332;-67
2022/08/08 14:21:16;;;;;;;0.68;0.65;;;;;;;;;;4969529;28;20673;-67
2022/08/08 14:23:44;;;;;;;0.73;0.73;;;;;;;;;;4969335;28;20260;-67
2022/08/08 14:26:20;;;;;;;2.22;0.50;;;;;;;;;;4969675;28;20257;-67
2022/08/08 14:28:50;;;;;;;0.88;0.52;;;;;;;;;;4968524;28;20802;-67
2022/08/08 14:31:17;;;;;;;0.80;0.77;;;;;;;;;;4972567;28;20550;-67
2022/08/08 14:33:51;;;;;;;0.50;0.50;;;;;;;;;;4969882;28;20265;-67
2022/08/08 14:36:18;;;;;;;0.40;0.40;;;;;;;;;;4968919;28;20265;-67
2022/08/08 14:38:45;;;;;;;0.60;0.60;;;;;;;;;;4969316;28;20238;-68
2022/08/08 14:41:12;;;;;;;0.40;0.40;;;;;;;;;;4969191;28;20265;-69
2022/08/08 14:43:46;;;;;;;0.40;0.40;;;;;;;;;;4968968;28;20210;-67
2022/08/08 14:46:14;;;;;;;0.80;0.50;;;;;;;;;;4968524;28;20226;-68
2022/08/08 14:48:43;;;;;;;0.47;0.40;;;;;;;;;;4968868;28;20336;-68
2022/08/08 14:51:11;;;;;;;1.23;0.50;;;;;;;;;;4969571;28;20230;-68
2022/08/08 14:53:39;;;;;;;0.70;0.70;;;;;;;;;;4969588;28;20207;-68
2022/08/08 14:56:06;;;;;;;1.10;1.10;;;;;;;;;;4969271;28;20211;-68
2022/08/08 14:58:33;;;;;;;1.50;0.50;;;;;;;;;;4968524;28;20206;-68
2022/08/08 15:01:00;;;;;;;0.43;0.43;;;;;;;;;;4969411;28;20673;-68
2022/08/08 15:03:27;;;;;;;1.98;0.50;;;;;;;;;;4969422;28;20198;-69
2022/08/08 15:05:54;;;;;;;0.55;0.55;;;;;;;;;;4968455;28;20214;-65
2022/08/08 15:08:23;;;;;;;0.40;0.40;;;;;;;;;;4968564;28;20202;-66